Silver Gate, MT (59081)

2:24 AM MDT on August 28, 2014 (GMT -0600)
Yellowstone | Change Station
CLOSE
Current Station
Airport
Location: Yellowstone,
Elevation: 7835 ft
Nearby Weather Stations

Elev 7835 ft 44.54 °N, 110.42 °W | Updated 28 minutes ago

Clear
Clear
40 °F
Feels Like 40 °F
N
0
Wind Variable Wind from North
Gusts 5 mph

Today
High -- | Low -- °F
--% Chance of Precip.
Yesterday
High -- | Low -- °F
Precip. -- in
6:38 AM 8:05 PM
Waxing Crescent, 7% visible
Pressure 30.19 in
Visibility -9999.0 miles
Clouds
Dew Point 37 °F
Humidity 89%
Rainfall 0.00 in
Snow Depth Not available.
UV Not available.
Pollen 8.50 out of 12
Air Quality Not available.
Flu Activity Not available.
METAR KP60 280756Z AUTO 00000KT 04/03 A3037 RMK AO1 SLP223 T00440028

More Conditions Fewer Conditions

Pressure 30.19 in
Visibility -9999.0 miles
Clouds
Dew Point 37 °F
Humidity 89%
Rainfall 0.00 in
Snow Depth Not available.
UV Not available.
Pollen 8.50 out of 12
Air Quality Not available.
Flu Activity Not available.
METAR KP60 280756Z AUTO 00000KT 04/03 A3037 RMK AO1 SLP223 T00440028

More Conditions Fewer Conditions

10-Day Weather Forecast

Almanac

Astronomy

Aug. 28, 2014 Rise Set
Actual Time 6:38 AM MDT 8:05 PM MDT
Civil Twilight 6:07 AM MDT 8:35 PM MDT
Nautical Twilight 5:30 AM MDT 9:12 PM MDT
Astronomical Twilight 4:50 AM MDT 9:52 PM MDT
Moon 9:43 AM MDT 9:20 PM MDT
Length of Visible Light 14h 28m
Length of Day
13h 27m
Tomorrow will be 3m 0s shorter.
Waxing Crescent, 7% of the Moon is Illuminated
Today
Waxing Crescent
Sep 2
First Quarter
Sep 8
Full
Sep 15
Last Quarter
Sep 24
New

Today's Extremes

State Highs State Lows

Community

WunderPhotos

Upload Photos

1,747,918 photos uploaded!

Nearby

Snow Depth

Station Depth Elevation
Monument Peak 0 in 8850 ft
Northeast Entrance 0 in 7350 ft
Fisher Creek 0 in 9100 ft
White Mill 2 in 8700 ft
Placer Basin 0 in 8830 ft

Earthquake Activity

City Distance Mag. Time & Date
No recent earthquake activity has been reported nearby.
Minimum magnitude displayed is 2.5.

Coastal Water Temperatures

Place Temperature
No Stations Reporting

Nearby Weather Stations